createdAt,value
2023-05-14T00:01:05.486Z,7.99
2023-05-14T00:03:33.728Z,7.98
2023-05-14T00:06:01.948Z,7.97
2023-05-14T00:08:30.013Z,7.96
2023-05-14T00:10:59.113Z,7.96
2023-05-14T00:13:27.145Z,7.97
2023-05-14T00:15:55.255Z,7.98
2023-05-14T00:18:23.381Z,8.00
2023-05-14T00:20:54.973Z,8.00
2023-05-14T00:23:24.309Z,7.97
2023-05-14T00:25:52.460Z,7.97
2023-05-14T00:28:21.289Z,7.95
2023-05-14T00:30:49.836Z,7.93
2023-05-14T00:33:18.204Z,7.92
2023-05-14T00:35:46.325Z,7.91
2023-05-14T00:38:17.813Z,7.92
2023-05-14T00:40:51.383Z,7.93
2023-05-14T00:43:21.299Z,7.89
2023-05-14T00:45:54.589Z,7.85
2023-05-14T00:48:23.568Z,7.82
2023-05-14T00:50:52.195Z,7.77
2023-05-14T00:53:21.140Z,7.70
2023-05-14T00:55:50.510Z,7.64
2023-05-14T00:58:19.734Z,7.58
2023-05-14T01:00:48.161Z,7.52
2023-05-14T01:03:16.633Z,7.44
2023-05-14T01:06:01.157Z,7.36
2023-05-14T01:08:32.422Z,7.28
2023-05-14T01:11:06.735Z,7.22
2023-05-14T01:13:48.805Z,7.16
2023-05-14T01:16:20.367Z,7.14
2023-05-14T01:18:52.198Z,7.10
2023-05-14T01:21:26.135Z,7.08
2023-05-14T01:23:54.653Z,7.07
2023-05-14T01:26:23.228Z,7.06
2023-05-14T01:28:53.284Z,7.05
2023-05-14T01:31:28.145Z,7.06
2023-05-14T01:33:59.411Z,7.08
2023-05-14T01:36:30.147Z,7.09
2023-05-14T01:38:59.137Z,7.13
2023-05-14T01:41:28.414Z,7.13
2023-05-14T01:43:57.559Z,7.11
2023-05-14T01:46:25.968Z,7.07
2023-05-14T01:48:54.496Z,7.03
2023-05-14T01:51:22.887Z,6.97
2023-05-14T01:53:51.264Z,6.91
2023-05-14T01:56:22.061Z,6.85
2023-05-14T01:58:50.370Z,6.80
2023-05-14T02:01:18.756Z,6.74
2023-05-14T02:03:46.918Z,6.69
2023-05-14T02:06:14.995Z,6.64
2023-05-14T02:08:43.239Z,6.59
2023-05-14T02:11:11.832Z,6.56
2023-05-14T02:13:40.398Z,6.55
2023-05-14T02:16:09.180Z,6.56
2023-05-14T02:18:37.321Z,6.57
2023-05-14T02:21:05.548Z,6.56
2023-05-14T02:23:40.985Z,6.56
2023-05-14T02:26:12.540Z,6.55
2023-05-14T02:28:40.809Z,6.55
2023-05-14T02:31:08.988Z,6.55
2023-05-14T02:33:37.138Z,6.56
2023-05-14T02:36:06.298Z,6.60
2023-05-14T02:38:34.717Z,6.60
2023-05-14T02:41:02.855Z,6.60
2023-05-14T02:43:30.876Z,6.62
2023-05-14T02:45:58.957Z,6.64
2023-05-14T02:48:26.996Z,6.64
2023-05-14T02:50:55.031Z,6.62
2023-05-14T02:53:23.209Z,6.59
2023-05-14T02:55:51.311Z,6.59
2023-05-14T02:58:19.423Z,6.56
2023-05-14T03:00:54.074Z,6.54
2023-05-14T03:03:22.754Z,6.53
2023-05-14T03:05:51.299Z,6.56
2023-05-14T03:08:19.804Z,6.70
2023-05-14T03:10:48.147Z,7.00
2023-05-14T03:13:18.006Z,7.38
2023-05-14T03:15:47.197Z,7.67
2023-05-14T03:18:15.526Z,7.73
2023-05-14T03:20:44.000Z,7.72
2023-05-14T03:23:13.383Z,7.67
2023-05-14T03:25:41.660Z,7.66
2023-05-14T03:28:10.048Z,7.68
2023-05-14T03:30:38.489Z,7.71
2023-05-14T03:33:07.139Z,7.72
2023-05-14T03:35:35.728Z,7.78
2023-05-14T03:38:04.381Z,7.82
2023-05-14T03:40:33.024Z,7.86
2023-05-14T03:43:01.598Z,7.88
2023-05-14T03:45:30.829Z,7.90
2023-05-14T03:48:00.413Z,7.94
2023-05-14T03:50:28.800Z,7.92
2023-05-14T03:52:56.805Z,7.87
2023-05-14T03:55:24.874Z,7.83
2023-05-14T03:57:53.064Z,7.80
2023-05-14T04:00:21.811Z,7.80
2023-05-14T04:02:50.008Z,7.81
2023-05-14T04:05:18.918Z,7.84
2023-05-14T04:07:47.575Z,7.91
2023-05-14T04:10:15.930Z,8.02
2023-05-14T04:12:44.431Z,8.15
2023-05-14T04:15:13.042Z,8.26
2023-05-14T04:17:41.622Z,8.35
2023-05-14T04:20:10.667Z,8.45
2023-05-14T04:22:38.624Z,8.50
2023-05-14T04:25:07.104Z,8.59
2023-05-14T04:27:35.402Z,8.67
2023-05-14T04:30:03.883Z,8.72
2023-05-14T04:32:31.855Z,8.78
2023-05-14T04:35:00.007Z,8.84
2023-05-14T04:37:28.080Z,8.89
2023-05-14T04:39:56.068Z,8.97
2023-05-14T04:42:24.330Z,9.02
2023-05-14T04:44:52.604Z,9.05
2023-05-14T04:47:21.599Z,9.07
2023-05-14T04:49:50.108Z,9.14
2023-05-14T04:52:18.398Z,9.22
2023-05-14T04:54:46.617Z,9.26
2023-05-14T04:57:14.890Z,9.29
2023-05-14T04:59:43.236Z,9.36
2023-05-14T05:02:11.817Z,9.51
2023-05-14T05:04:40.756Z,9.66
2023-05-14T05:07:09.101Z,9.76
2023-05-14T05:09:37.491Z,9.86
2023-05-14T05:12:06.888Z,9.98
2023-05-14T05:14:35.076Z,10.03
2023-05-14T05:17:03.108Z,10.15
2023-05-14T05:19:42.570Z,10.47
2023-05-14T05:22:12.122Z,10.89
2023-05-14T05:24:40.188Z,11.27
2023-05-14T05:27:08.753Z,11.61
2023-05-14T05:29:36.954Z,11.94
2023-05-14T05:32:06.042Z,12.37
2023-05-14T05:34:35.116Z,12.77
2023-05-14T05:37:03.458Z,13.03
2023-05-14T05:39:35.196Z,13.23
2023-05-14T05:42:04.042Z,13.47
2023-05-14T05:44:32.138Z,13.69
2023-05-14T05:47:00.548Z,13.84
2023-05-14T05:49:28.854Z,13.96
2023-05-14T05:51:57.159Z,14.10
2023-05-14T05:54:25.590Z,14.23
2023-05-14T05:56:53.617Z,14.29
2023-05-14T05:59:22.039Z,14.42
2023-05-14T06:01:50.198Z,14.42
2023-05-14T06:04:18.226Z,14.53
2023-05-14T06:06:46.389Z,14.79
2023-05-14T06:09:14.652Z,15.06
2023-05-14T06:11:42.958Z,15.30
2023-05-14T06:14:11.030Z,15.51
2023-05-14T06:16:39.139Z,15.66
2023-05-14T06:19:08.637Z,15.77
2023-05-14T06:21:36.766Z,15.88
2023-05-14T06:24:05.583Z,16.06
2023-05-14T06:26:34.437Z,16.17
2023-05-14T06:29:02.626Z,16.22
2023-05-14T06:31:30.818Z,16.37
2023-05-14T06:33:58.891Z,16.51
2023-05-14T06:36:26.805Z,16.72
2023-05-14T06:38:55.072Z,16.91
2023-05-14T06:41:23.193Z,17.08
2023-05-14T06:43:51.368Z,17.16
2023-05-14T06:46:19.465Z,17.43
2023-05-14T06:48:47.637Z,17.71
2023-05-14T06:51:15.927Z,17.96
2023-05-14T06:53:44.032Z,18.06
2023-05-14T06:56:13.749Z,18.27
2023-05-14T06:58:41.831Z,18.57
2023-05-14T07:01:10.834Z,18.51
2023-05-14T07:03:39.421Z,18.37
2023-05-14T07:06:07.743Z,18.56
2023-05-14T07:08:36.228Z,18.83
2023-05-14T07:11:04.450Z,19.00
2023-05-14T07:13:32.776Z,19.21
2023-05-14T07:16:01.111Z,19.37
2023-05-14T07:18:29.512Z,19.37
2023-05-14T07:20:57.726Z,19.36
2023-05-14T07:23:25.960Z,19.24
2023-05-14T07:25:54.385Z,19.34
2023-05-14T07:28:22.456Z,19.38
2023-05-14T07:30:50.742Z,19.35
2023-05-14T07:33:18.764Z,19.09
2023-05-14T07:35:47.489Z,18.89
2023-05-14T07:38:16.877Z,18.66
2023-05-14T07:40:45.306Z,18.55
2023-05-14T07:43:14.785Z,18.29
2023-05-14T07:45:43.252Z,18.03
2023-05-14T07:48:12.165Z,17.78
2023-05-14T07:50:41.036Z,17.64
2023-05-14T07:53:09.453Z,17.68
2023-05-14T07:55:37.671Z,17.74
2023-05-14T07:58:06.810Z,17.88
2023-05-14T08:00:35.098Z,17.94
2023-05-14T08:03:03.904Z,18.06
2023-05-14T08:05:33.177Z,18.16
2023-05-14T08:08:01.849Z,18.31
2023-05-14T08:10:30.485Z,18.48
2023-05-14T08:12:59.051Z,18.64
2023-05-14T08:15:28.022Z,18.73
2023-05-14T08:17:56.544Z,18.93
2023-05-14T08:20:25.185Z,18.96
2023-05-14T08:22:53.716Z,19.00
2023-05-14T08:25:21.817Z,19.10
2023-05-14T08:27:50.724Z,19.25
2023-05-14T08:30:18.861Z,19.19
2023-05-14T08:32:47.075Z,19.03
2023-05-14T08:35:15.364Z,18.83
2023-05-14T08:37:43.609Z,18.82
2023-05-14T08:40:12.771Z,18.97
2023-05-14T08:42:41.737Z,19.01
2023-05-14T08:45:21.416Z,19.14
2023-05-14T08:47:52.095Z,19.47
2023-05-14T08:50:23.015Z,19.62
2023-05-14T08:52:53.175Z,19.45
2023-05-14T08:55:21.411Z,19.22
2023-05-14T08:57:49.542Z,19.27
2023-05-14T09:00:18.911Z,19.09
2023-05-14T09:02:48.729Z,18.91
2023-05-14T09:05:19.164Z,18.90
2023-05-14T09:07:47.235Z,19.02
2023-05-14T09:10:16.327Z,19.09
2023-05-14T09:12:44.863Z,19.08
2023-05-14T09:15:13.258Z,19.15
2023-05-14T09:17:41.585Z,19.22
2023-05-14T09:20:13.011Z,19.15
2023-05-14T09:22:41.322Z,19.09
2023-05-14T09:25:12.530Z,19.20
2023-05-14T09:27:41.113Z,19.37
2023-05-14T09:30:10.766Z,19.45
2023-05-14T09:32:44.375Z,19.49
2023-05-14T09:35:24.963Z,19.46
2023-05-14T09:37:55.220Z,19.47
2023-05-14T09:40:24.660Z,19.62
2023-05-14T09:42:57.748Z,19.85
2023-05-14T09:45:26.293Z,20.07
2023-05-14T09:47:54.679Z,20.12
2023-05-14T09:50:23.331Z,20.19
2023-05-14T09:52:51.829Z,20.20
2023-05-14T09:55:21.096Z,20.03
2023-05-14T09:57:50.209Z,19.72
2023-05-14T10:00:18.861Z,19.41
2023-05-14T10:02:48.141Z,19.27
2023-05-14T10:05:16.879Z,19.44
2023-05-14T10:07:49.474Z,19.69
2023-05-14T10:10:20.473Z,19.84
2023-05-14T10:13:04.869Z,19.93
2023-05-14T10:15:49.577Z,20.11
2023-05-14T10:18:24.414Z,20.25
2023-05-14T10:21:04.322Z,20.22
2023-05-14T10:23:33.568Z,20.22
2023-05-14T10:26:02.135Z,20.30
2023-05-14T10:28:32.328Z,20.21
2023-05-14T10:31:01.127Z,19.96
2023-05-14T10:33:29.440Z,19.74
2023-05-14T10:36:02.355Z,19.62
2023-05-14T10:38:33.758Z,19.48
2023-05-14T10:41:13.126Z,19.38
2023-05-14T10:43:43.032Z,19.48
2023-05-14T10:46:13.280Z,19.65
2023-05-14T10:48:43.566Z,19.77
2023-05-14T10:51:13.195Z,19.86
2023-05-14T10:53:44.661Z,19.93
2023-05-14T10:56:15.131Z,19.96
2023-05-14T10:58:45.919Z,19.78
2023-05-14T11:01:14.623Z,19.71
2023-05-14T11:03:46.518Z,19.77
2023-05-14T11:06:16.440Z,19.72
2023-05-14T11:08:46.768Z,19.68
2023-05-14T11:11:15.162Z,19.69
2023-05-14T11:13:44.974Z,19.67
2023-05-14T11:16:22.638Z,19.66
2023-05-14T11:19:04.591Z,19.59
2023-05-14T11:21:34.081Z,19.44
2023-05-14T11:24:02.459Z,19.41
2023-05-14T11:26:32.262Z,19.33
2023-05-14T11:29:01.637Z,19.34
2023-05-14T11:31:31.858Z,19.37
2023-05-14T11:34:01.205Z,19.41
2023-05-14T11:36:29.758Z,19.39
2023-05-14T11:38:57.980Z,19.32
2023-05-14T11:41:28.164Z,19.27
2023-05-14T11:43:56.324Z,19.28
2023-05-14T11:46:26.186Z,19.26
2023-05-14T11:48:54.329Z,19.23
2023-05-14T11:51:23.512Z,19.19
2023-05-14T11:53:51.736Z,19.08
2023-05-14T11:56:21.945Z,18.99
2023-05-14T11:58:56.287Z,18.91
2023-05-14T12:01:25.430Z,18.85
2023-05-14T12:03:53.659Z,18.80
2023-05-14T12:06:22.113Z,18.76
2023-05-14T12:08:51.194Z,18.70
2023-05-14T12:11:22.658Z,18.64
2023-05-14T12:13:53.039Z,18.59
2023-05-14T12:16:21.763Z,18.53
2023-05-14T12:18:49.970Z,18.47
2023-05-14T12:21:19.767Z,18.40
2023-05-14T12:23:56.751Z,18.35
2023-05-14T12:26:27.425Z,18.27
2023-05-14T12:29:03.766Z,18.23
2023-05-14T12:31:32.673Z,18.22
2023-05-14T12:34:01.426Z,18.23
2023-05-14T12:36:32.735Z,18.22
2023-05-14T12:39:03.801Z,18.23
2023-05-14T12:41:32.403Z,18.21
2023-05-14T12:44:01.320Z,18.22
2023-05-14T12:46:30.520Z,18.24
2023-05-14T12:48:58.882Z,18.21
2023-05-14T12:51:27.840Z,18.19
2023-05-14T12:53:56.200Z,18.21
2023-05-14T12:56:28.618Z,18.21
2023-05-14T12:58:57.305Z,18.18
2023-05-14T13:01:25.777Z,18.13
2023-05-14T13:03:56.966Z,18.08
2023-05-14T13:06:26.098Z,17.97
2023-05-14T13:08:55.051Z,17.85
2023-05-14T13:11:24.077Z,17.66
2023-05-14T13:13:52.328Z,17.53
2023-05-14T13:16:20.963Z,17.42
2023-05-14T13:18:49.407Z,17.31
2023-05-14T13:21:17.935Z,17.14
2023-05-14T13:23:46.564Z,17.02
2023-05-14T13:26:15.135Z,16.90
2023-05-14T13:28:43.447Z,16.77
2023-05-14T13:31:14.868Z,16.63
2023-05-14T13:33:44.840Z,16.50
2023-05-14T13:36:15.038Z,16.38
2023-05-14T13:38:43.469Z,16.22
2023-05-14T13:41:12.286Z,16.11
2023-05-14T13:43:40.742Z,16.06
2023-05-14T13:46:09.503Z,16.02
2023-05-14T13:48:37.958Z,15.99
2023-05-14T13:51:06.220Z,16.00
2023-05-14T13:53:34.332Z,16.04
2023-05-14T13:56:02.602Z,16.09
2023-05-14T13:58:30.926Z,16.12
2023-05-14T14:00:59.270Z,16.19
2023-05-14T14:03:27.526Z,16.24
2023-05-14T14:05:55.932Z,16.32
2023-05-14T14:08:24.696Z,16.44
2023-05-14T14:10:55.704Z,16.55
2023-05-14T14:13:24.623Z,16.67
2023-05-14T14:15:53.068Z,16.81
2023-05-14T14:18:21.445Z,16.91
2023-05-14T14:20:49.864Z,17.00
2023-05-14T14:23:18.413Z,17.10
2023-05-14T14:25:46.687Z,17.21
2023-05-14T14:28:15.184Z,17.31
2023-05-14T14:30:44.122Z,17.41
2023-05-14T14:33:12.800Z,17.51
2023-05-14T14:35:40.941Z,17.59
2023-05-14T14:38:09.657Z,17.68
2023-05-14T14:40:38.115Z,17.72
2023-05-14T14:43:06.841Z,17.70
2023-05-14T14:45:35.523Z,17.69
2023-05-14T14:48:27.212Z,17.67
2023-05-14T14:50:55.993Z,17.65
2023-05-14T14:53:25.041Z,17.61
2023-05-14T14:55:53.511Z,17.57
2023-05-14T14:58:21.850Z,17.52
2023-05-14T15:00:57.649Z,17.45
2023-05-14T15:03:26.269Z,17.39
2023-05-14T15:05:54.854Z,17.34
2023-05-14T15:08:28.434Z,17.31
2023-05-14T15:10:57.750Z,17.24
2023-05-14T15:13:27.170Z,17.20
2023-05-14T15:15:55.366Z,17.18
2023-05-14T15:18:23.623Z,17.17
2023-05-14T15:20:52.942Z,17.15
2023-05-14T15:23:21.483Z,17.09
2023-05-14T15:25:50.152Z,17.07
2023-05-14T15:28:18.475Z,17.07
2023-05-14T15:30:48.637Z,17.09
2023-05-14T15:33:19.649Z,17.09
2023-05-14T15:35:48.372Z,17.08
2023-05-14T15:38:17.461Z,17.07
2023-05-14T15:40:46.054Z,17.07
2023-05-14T15:43:14.452Z,17.07
2023-05-14T15:45:45.994Z,17.08
2023-05-14T15:48:14.234Z,17.11
2023-05-14T15:50:42.653Z,17.16
2023-05-14T15:53:11.126Z,17.23
2023-05-14T15:55:39.465Z,17.27
2023-05-14T15:58:07.856Z,17.31
2023-05-14T16:00:36.059Z,17.30
2023-05-14T16:03:05.090Z,17.30
2023-05-14T16:05:33.355Z,17.28
2023-05-14T16:08:01.598Z,17.25
2023-05-14T16:10:30.664Z,17.21
2023-05-14T16:12:59.726Z,17.20
2023-05-14T16:15:28.515Z,17.17
2023-05-14T16:17:57.074Z,17.13
2023-05-14T16:20:25.576Z,17.12
2023-05-14T16:22:53.891Z,17.11
2023-05-14T16:25:22.352Z,17.08
2023-05-14T16:27:50.437Z,17.04
2023-05-14T16:30:18.555Z,16.97
2023-05-14T16:32:49.830Z,16.91
2023-05-14T16:35:18.261Z,16.84
2023-05-14T16:37:46.684Z,16.79
2023-05-14T16:40:16.388Z,16.73
2023-05-14T16:42:46.060Z,16.68
2023-05-14T16:45:16.430Z,16.65
2023-05-14T16:47:44.762Z,16.60
2023-05-14T16:50:12.947Z,16.54
2023-05-14T16:52:41.017Z,16.48
2023-05-14T16:55:09.616Z,16.44
2023-05-14T16:57:37.737Z,16.41
2023-05-14T17:00:06.785Z,16.36
2023-05-14T17:02:35.218Z,16.31
2023-05-14T17:05:04.186Z,16.28
2023-05-14T17:07:32.322Z,16.24
2023-05-14T17:10:00.809Z,16.23
2023-05-14T17:12:29.126Z,16.23
2023-05-14T17:14:57.548Z,16.21
2023-05-14T17:17:25.913Z,16.18
2023-05-14T17:19:53.955Z,16.16
2023-05-14T17:22:22.531Z,16.15
2023-05-14T17:24:50.782Z,16.12
2023-05-14T17:27:19.208Z,16.10
2023-05-14T17:29:51.208Z,16.08
2023-05-14T17:32:19.978Z,16.05
2023-05-14T17:34:48.126Z,16.03
2023-05-14T17:37:17.802Z,15.99
2023-05-14T17:39:47.955Z,15.97
2023-05-14T17:42:17.284Z,15.93
2023-05-14T17:44:45.867Z,15.90
2023-05-14T17:47:14.412Z,15.88
2023-05-14T17:49:42.764Z,15.86
2023-05-14T17:52:10.729Z,15.83
2023-05-14T17:54:38.834Z,15.81
2023-05-14T17:57:07.243Z,15.80
2023-05-14T17:59:35.917Z,15.78
2023-05-14T18:02:05.864Z,15.75
2023-05-14T18:04:34.415Z,15.73
2023-05-14T18:07:03.381Z,15.71
2023-05-14T18:09:32.002Z,15.70
2023-05-14T18:12:01.383Z,15.69
2023-05-14T18:14:30.523Z,15.67
2023-05-14T18:16:58.604Z,15.65
2023-05-14T18:19:27.004Z,15.63
2023-05-14T18:21:55.746Z,15.63
2023-05-14T18:24:23.929Z,15.64
2023-05-14T18:26:52.274Z,15.63
2023-05-14T18:29:20.591Z,15.65
2023-05-14T18:31:48.931Z,15.67
2023-05-14T18:34:17.858Z,15.68
2023-05-14T18:36:46.579Z,15.69
2023-05-14T18:39:14.848Z,15.69
2023-05-14T18:41:42.952Z,15.69
2023-05-14T18:44:11.118Z,15.68
2023-05-14T18:46:39.458Z,15.67
2023-05-14T18:49:07.907Z,15.68
2023-05-14T18:51:36.148Z,15.66
2023-05-14T18:54:04.329Z,15.63
2023-05-14T18:56:32.605Z,15.60
2023-05-14T18:59:00.665Z,15.57
2023-05-14T19:01:29.185Z,15.53
2023-05-14T19:03:57.393Z,15.50
2023-05-14T19:06:25.877Z,15.49
2023-05-14T19:08:54.365Z,15.47
2023-05-14T19:11:22.729Z,15.46
2023-05-14T19:13:50.807Z,15.45
2023-05-14T19:16:19.275Z,15.43
2023-05-14T19:18:47.539Z,15.41
2023-05-14T19:21:16.195Z,15.41
2023-05-14T19:23:44.292Z,15.40
2023-05-14T19:26:12.689Z,15.40
2023-05-14T19:28:40.752Z,15.39
2023-05-14T19:31:08.962Z,15.35
2023-05-14T19:33:37.347Z,15.35
2023-05-14T19:36:05.647Z,15.34
2023-05-14T19:38:33.829Z,15.33
2023-05-14T19:41:01.857Z,15.31
2023-05-14T19:43:29.818Z,15.28
2023-05-14T19:45:59.937Z,15.26
2023-05-14T19:48:29.445Z,15.24
2023-05-14T19:50:58.082Z,15.21
2023-05-14T19:53:29.812Z,15.19
2023-05-14T19:55:58.831Z,15.16
2023-05-14T19:58:26.944Z,15.12
2023-05-14T20:00:57.629Z,15.08
2023-05-14T20:03:26.576Z,15.06
2023-05-14T20:05:55.917Z,15.06
2023-05-14T20:08:25.067Z,15.07
2023-05-14T20:10:53.213Z,15.05
2023-05-14T20:13:23.145Z,15.04
2023-05-14T20:15:52.874Z,15.03
2023-05-14T20:18:20.954Z,15.00
2023-05-14T20:20:49.418Z,14.95
2023-05-14T20:23:18.751Z,14.91
2023-05-14T20:25:47.994Z,14.89
2023-05-14T20:28:16.107Z,14.84
2023-05-14T20:30:44.226Z,14.79
2023-05-14T20:33:13.543Z,14.71
2023-05-14T20:35:44.280Z,14.62
2023-05-14T20:38:13.523Z,14.53
2023-05-14T20:40:41.799Z,14.45
2023-05-14T20:43:10.274Z,14.35
2023-05-14T20:45:39.514Z,14.29
2023-05-14T20:48:10.676Z,14.21
2023-05-14T20:50:38.875Z,14.16
2023-05-14T20:53:07.128Z,14.13
2023-05-14T20:55:35.388Z,14.10
2023-05-14T20:58:04.377Z,14.05
2023-05-14T21:00:32.857Z,14.03
2023-05-14T21:03:01.246Z,14.00
2023-05-14T21:05:30.449Z,13.96
2023-05-14T21:07:58.644Z,13.92
2023-05-14T21:10:26.864Z,13.89
2023-05-14T21:12:55.234Z,13.86
2023-05-14T21:15:23.678Z,13.81
2023-05-14T21:17:51.981Z,13.81
2023-05-14T21:20:20.080Z,13.78
2023-05-14T21:22:48.132Z,13.77
2023-05-14T21:25:16.338Z,13.75
2023-05-14T21:27:44.377Z,13.73
2023-05-14T21:30:13.153Z,13.73
2023-05-14T21:32:41.527Z,13.74
2023-05-14T21:35:09.957Z,13.74
2023-05-14T21:37:39.898Z,13.73
2023-05-14T21:40:15.198Z,13.71
2023-05-14T21:42:43.446Z,13.71
2023-05-14T21:45:11.974Z,13.71
2023-05-14T21:47:40.521Z,13.71
2023-05-14T21:50:09.179Z,13.70
2023-05-14T21:52:38.345Z,13.69
2023-05-14T21:55:06.770Z,13.70
2023-05-14T21:57:35.026Z,13.68
2023-05-14T22:00:07.988Z,13.66
2023-05-14T22:02:36.268Z,13.64
2023-05-14T22:05:05.422Z,13.62
2023-05-14T22:07:33.679Z,13.60
2023-05-14T22:10:02.573Z,13.58
2023-05-14T22:12:30.653Z,13.57
2023-05-14T22:14:58.726Z,13.55
2023-05-14T22:17:28.411Z,13.53
2023-05-14T22:19:57.021Z,13.52
2023-05-14T22:22:25.425Z,13.52
2023-05-14T22:24:53.861Z,13.50
2023-05-14T22:27:22.491Z,13.50
2023-05-14T22:29:50.749Z,13.49
2023-05-14T22:32:18.770Z,13.48
2023-05-14T22:34:46.927Z,13.48
2023-05-14T22:37:15.846Z,13.47
2023-05-14T22:39:44.062Z,13.46
2023-05-14T22:42:12.230Z,13.45
2023-05-14T22:44:40.455Z,13.43
2023-05-14T22:47:08.591Z,13.43
2023-05-14T22:49:36.762Z,13.41
2023-05-14T22:52:05.898Z,13.40
2023-05-14T22:54:34.241Z,13.39
2023-05-14T22:57:03.488Z,13.37
2023-05-14T22:59:31.852Z,13.35
2023-05-14T23:02:00.087Z,13.32
2023-05-14T23:04:28.713Z,13.30
2023-05-14T23:06:58.265Z,13.28
2023-05-14T23:09:26.564Z,13.25
2023-05-14T23:11:55.165Z,13.24
2023-05-14T23:14:23.387Z,13.21
2023-05-14T23:16:52.171Z,13.21
2023-05-14T23:19:22.136Z,13.19
2023-05-14T23:21:51.092Z,13.17
2023-05-14T23:24:20.087Z,13.14
2023-05-14T23:26:48.380Z,13.10
2023-05-14T23:29:16.631Z,13.08
2023-05-14T23:31:44.764Z,13.05
2023-05-14T23:34:12.986Z,13.01
2023-05-14T23:36:41.425Z,12.98
2023-05-14T23:39:10.357Z,12.95
2023-05-14T23:41:38.815Z,12.94
2023-05-14T23:44:07.583Z,12.93
2023-05-14T23:46:36.190Z,12.93
2023-05-14T23:49:05.419Z,12.94
2023-05-14T23:51:33.926Z,12.96
2023-05-14T23:54:02.152Z,12.98
2023-05-14T23:56:30.787Z,12.99
2023-05-14T23:58:58.966Z,12.99
